CDT,Max TemperatureF,Mean TemperatureF,Min TemperatureF,Max Dew PointF,MeanDew PointF,Min DewpointF,Max Humidity, Mean Humidity, Min Humidity, Max Sea Level PressureIn, Mean Sea Level PressureIn, Min Sea Level PressureIn, Max VisibilityMiles, Mean VisibilityMiles, Min VisibilityMiles, Max Wind SpeedMPH, Mean Wind SpeedMPH, Max Gust SpeedMPH,PrecipitationIn, CloudCover, Events, WindDirDegrees
2013-8-1,100,88,76,72,68,61,82,56,29,30.02,29.97,29.91,10,10,10,30,6,37,0.00,1,,164
2013-8-2,99,88,77,71,69,65,79,56,33,29.97,29.94,29.90,10,10,10,13,7,20,0.00,0,,165
2013-8-3,98,87,75,73,69,66,79,59,38,30.03,29.99,29.94,10,10,10,13,8,23,0.00,0,,177
2013-8-4,97,87,77,73,70,66,88,63,38,30.11,30.03,29.95,10,10,10,13,7,17,0.00,1,,173
2013-8-5,99,90,80,72,67,61,74,52,29,30.05,29.96,29.87,10,10,7,16,9,20,0.00,0,,191
2013-8-6,101,90,79,72,68,63,74,52,29,29.95,29.89,29.82,10,10,10,20,10,36,0.00,0,,188
2013-8-7,102,90,78,72,68,62,79,54,29,29.94,29.87,29.79,10,10,10,17,10,25,0.00,0,,185
2013-8-8,100,89,77,72,69,63,82,57,31,29.91,29.86,29.80,10,10,10,16,8,21,0.00,0,,186
2013-8-9,99,88,76,71,65,57,82,54,26,29.98,29.92,29.88,10,10,10,12,7,15,0.00,0,,174
2013-8-10,103,91,78,72,68,59,79,52,25,30.04,29.99,29.93,10,10,10,23,7,29,0.00,0,,186
2013-8-11,98,87,75,73,69,64,82,58,33,30.09,30.03,29.97,10,10,10,13,6,16,0.00,0,,174
2013-8-12,97,87,76,72,69,64,87,61,35,30.09,30.02,29.94,10,10,10,14,7,17,0.00,1,,185
2013-8-13,99,88,77,73,70,67,79,60,40,30.02,29.96,29.91,10,10,10,24,8,36,0.01,1,Rain,192
2013-8-14,89,82,75,77,72,66,94,74,53,30.03,29.99,29.94,10,9,2,18,6,23,0.15,5,Rain-Thunderstorm,40
2013-8-15,91,81,70,66,59,55,74,52,30,30.07,30.01,29.95,10,10,10,13,7,17,0.00,2,,57
2013-8-16,91,80,68,69,60,58,68,53,38,30.07,30.00,29.96,10,10,10,18,5,24,0.05,1,Rain,95
2013-8-17,91,77,62,59,56,52,84,56,27,30.08,30.03,29.97,10,10,10,18,7,25,0.00,0,,42
2013-8-18,93,79,65,65,59,54,84,56,28,30.08,30.03,29.99,10,10,7,14,5,18,0.00,1,,72
2013-8-19,93,82,70,64,60,53,73,51,28,30.09,30.01,29.94,10,10,10,10,5,16,0.00,2,,91
2013-8-20,96,84,71,66,60,55,73,51,28,30.06,30.01,29.96,10,10,10,15,6,20,0.00,1,,151
2013-8-21,96,84,71,68,64,60,84,58,31,30.11,30.05,29.99,10,10,10,13,5,17,0.00,1,,178
2013-8-22,98,87,75,74,68,64,79,57,35,30.10,30.03,29.96,10,10,10,16,5,22,0.02,2,Rain,171
2013-8-23,101,88,75,71,66,61,82,55,27,30.04,29.98,29.90,10,10,10,13,5,16,0.00,1,,129
2013-8-24,100,88,75,70,66,62,79,55,31,30.07,30.01,29.97,10,10,10,15,6,21,0.00,1,,104
2013-8-25,97,86,75,69,65,61,79,55,30,30.15,30.10,30.05,10,10,10,17,9,22,0.00,1,,103
2013-8-26,96,85,73,69,67,62,84,59,34,30.18,30.12,30.06,10,10,10,24,10,29,0.00,2,,122
2013-8-27,94,84,73,70,67,65,87,63,39,30.14,30.08,30.03,10,10,10,13,6,18,0.00,2,,178
2013-8-28,97,85,72,69,67,63,84,60,35,30.11,30.04,29.99,10,10,8,10,2,16,0.00,1,,246
2013-8-29,101,89,76,68,64,60,74,52,29,30.07,30.01,29.94,10,10,10,13,4,17,0.00,2,,178
2013-8-30,102,88,74,72,64,58,82,54,25,30.01,29.95,29.87,10,10,10,14,6,18,0.00,1,,147
2013-8-31,102,89,75,71,66,60,87,57,27,29.93,29.87,29.80,10,10,8,13,6,17,0.00,0,,182